createdAt,value
2017-11-19T00:00:26.785Z,100568.35
2017-11-19T00:02:54.424Z,100563.81
2017-11-19T00:05:22.099Z,100572.37
2017-11-19T00:07:49.752Z,100567.30
2017-11-19T00:10:17.449Z,100569.36
2017-11-19T00:12:45.132Z,100579.84
2017-11-19T00:15:12.849Z,100585.06
2017-11-19T00:17:40.512Z,100589.48
2017-11-19T00:20:08.163Z,100575.69
2017-11-19T00:22:35.851Z,100578.43
2017-11-19T00:25:03.543Z,100573.59
2017-11-19T00:27:31.249Z,100564.37
2017-11-19T00:29:58.911Z,100557.48
2017-11-19T00:32:26.637Z,100551.85
2017-11-19T00:34:54.299Z,100556.53
2017-11-19T00:37:21.990Z,100543.47
2017-11-19T00:39:49.637Z,100538.75
2017-11-19T00:42:17.312Z,100542.77
2017-11-19T00:44:44.966Z,100538.20
2017-11-19T00:47:12.655Z,100548.38
2017-11-19T00:49:40.308Z,100550.98
2017-11-19T00:52:08.024Z,100545.59
2017-11-19T00:54:35.688Z,100546.31
2017-11-19T00:57:03.413Z,100551.00
2017-11-19T00:59:31.056Z,100540.41
2017-11-19T01:01:58.703Z,100546.87
2017-11-19T01:04:26.380Z,100568.75
2017-11-19T01:06:54.060Z,100564.88
2017-11-19T01:09:21.762Z,100542.28
2017-11-19T01:11:49.419Z,100544.38
2017-11-19T01:14:17.133Z,100545.48
2017-11-19T01:16:44.804Z,100535.84
2017-11-19T01:19:12.497Z,100527.44
2017-11-19T01:21:40.156Z,100518.59
2017-11-19T01:24:07.823Z,100514.32
2017-11-19T01:26:35.490Z,100507.84
2017-11-19T01:29:03.196Z,100512.94
2017-11-19T01:31:30.841Z,100512.95
2017-11-19T01:33:58.591Z,100516.00
2017-11-19T01:36:26.316Z,100507.58
2017-11-19T01:38:54.025Z,100506.37
2017-11-19T01:41:22.694Z,100501.55
2017-11-19T01:43:50.352Z,100488.19
2017-11-19T01:46:18.037Z,100500.16
2017-11-19T01:48:45.700Z,100496.98
2017-11-19T01:51:13.421Z,100492.73
2017-11-19T01:53:41.086Z,100494.52
2017-11-19T01:56:08.789Z,100504.99
2017-11-19T01:58:36.423Z,100505.13
2017-11-19T02:01:04.118Z,100503.34
2017-11-19T02:03:31.780Z,100492.61
2017-11-19T02:05:59.455Z,100499.75
2017-11-19T02:08:27.101Z,100485.30
2017-11-19T02:10:54.783Z,100483.08
2017-11-19T02:13:22.432Z,100439.97
2017-11-19T02:15:50.107Z,100424.42
2017-11-19T02:18:17.749Z,100443.71
2017-11-19T02:20:45.432Z,100445.28
2017-11-19T02:23:13.086Z,100456.31
2017-11-19T02:25:40.769Z,100453.98
2017-11-19T02:28:08.416Z,100451.08
2017-11-19T02:30:36.094Z,100464.41
2017-11-19T02:33:03.758Z,100453.13
2017-11-19T02:35:31.441Z,100450.36
2017-11-19T02:37:59.101Z,100478.97
2017-11-19T02:40:26.797Z,100466.84
2017-11-19T02:42:54.457Z,100457.75
2017-11-19T02:45:22.152Z,100455.39
2017-11-19T02:47:49.797Z,100447.41
2017-11-19T02:50:17.505Z,100448.53
2017-11-19T02:52:45.148Z,100444.83
2017-11-19T02:55:12.820Z,100439.31
2017-11-19T02:57:40.457Z,100440.53
2017-11-19T03:00:08.112Z,100440.14
2017-11-19T03:02:35.795Z,100428.80
2017-11-19T03:05:03.433Z,100420.67
2017-11-19T03:07:31.112Z,100424.94
2017-11-19T03:09:58.757Z,100420.97
2017-11-19T03:12:26.448Z,100404.99
2017-11-19T03:14:54.086Z,100413.37
2017-11-19T03:17:21.777Z,100413.11
2017-11-19T03:19:49.427Z,100421.78
2017-11-19T03:22:17.121Z,100429.21
2017-11-19T03:24:44.760Z,100424.37
2017-11-19T03:27:12.437Z,100415.84
2017-11-19T03:29:40.108Z,100400.94
2017-11-19T03:32:07.778Z,100412.13
2017-11-19T03:34:35.415Z,100424.14
2017-11-19T03:37:03.089Z,100411.89
2017-11-19T03:39:30.745Z,100414.23
2017-11-19T03:41:58.438Z,100404.19
2017-11-19T03:44:26.090Z,100407.91
2017-11-19T03:46:53.772Z,100411.45
2017-11-19T03:49:21.425Z,100412.38
2017-11-19T03:51:49.165Z,100406.16
2017-11-19T03:54:16.812Z,100384.26
2017-11-19T03:56:44.484Z,100389.66
2017-11-19T03:59:12.129Z,100378.78
2017-11-19T04:01:39.821Z,100368.22
2017-11-19T04:04:07.460Z,100364.12
2017-11-19T04:06:35.161Z,100359.70
2017-11-19T04:09:02.871Z,100354.52
2017-11-19T04:11:30.557Z,100357.45
2017-11-19T04:13:58.238Z,100359.96
2017-11-19T04:16:25.887Z,100366.34
2017-11-19T04:18:53.578Z,100359.73
2017-11-19T04:21:21.237Z,100364.56
2017-11-19T04:23:48.921Z,100365.36
2017-11-19T04:26:16.585Z,100357.33
2017-11-19T04:28:44.281Z,100354.12
2017-11-19T04:31:11.935Z,100338.57
2017-11-19T04:33:39.614Z,100350.71
2017-11-19T04:36:07.264Z,100361.12
2017-11-19T04:38:34.947Z,100350.12
2017-11-19T04:41:02.603Z,100355.51
2017-11-19T04:43:30.293Z,100361.84
2017-11-19T04:45:57.956Z,100354.40
2017-11-19T04:48:25.644Z,100339.68
2017-11-19T04:50:53.332Z,100324.53
2017-11-19T04:53:20.977Z,100316.29
2017-11-19T04:55:48.649Z,100329.51
2017-11-19T04:58:16.301Z,100315.63
2017-11-19T05:00:43.986Z,100309.06
2017-11-19T05:03:11.624Z,100310.16
2017-11-19T05:05:39.342Z,100315.65
2017-11-19T05:08:06.984Z,100310.02
2017-11-19T05:10:34.716Z,100313.31
2017-11-19T05:13:02.357Z,100303.83
2017-11-19T05:15:30.052Z,100306.38
2017-11-19T05:17:57.701Z,100292.63
2017-11-19T05:20:25.388Z,100295.40
2017-11-19T05:22:52.973Z,100294.32
2017-11-19T05:25:20.648Z,100290.70
2017-11-19T05:27:48.284Z,100286.14
2017-11-19T05:30:15.959Z,100289.58
2017-11-19T05:32:43.607Z,100269.84
2017-11-19T05:35:11.306Z,100283.46
2017-11-19T05:37:38.948Z,100289.10
2017-11-19T05:40:06.680Z,100278.41
2017-11-19T05:42:34.321Z,100289.28
2017-11-19T05:45:02.002Z,100283.23
2017-11-19T05:47:29.653Z,100291.03
2017-11-19T05:49:57.311Z,100278.31
2017-11-19T05:52:25.022Z,100270.77
2017-11-19T05:54:52.671Z,100265.43
2017-11-19T05:57:20.365Z,100268.48
2017-11-19T05:59:48.026Z,100276.91
2017-11-19T06:02:15.733Z,100267.50
2017-11-19T06:04:43.377Z,100256.43
2017-11-19T06:07:11.048Z,100268.11
2017-11-19T06:09:38.690Z,100278.38
2017-11-19T06:12:06.363Z,100274.11
2017-11-19T06:14:34.008Z,100272.61
2017-11-19T06:17:01.698Z,100270.77
2017-11-19T06:19:29.341Z,100269.56
2017-11-19T06:21:57.034Z,100266.14
2017-11-19T06:24:24.675Z,100264.88
2017-11-19T06:26:52.356Z,100266.12
2017-11-19T06:29:19.988Z,100274.30
2017-11-19T06:31:47.676Z,100266.94
2017-11-19T06:34:15.384Z,100275.44
2017-11-19T06:36:43.068Z,100286.70
2017-11-19T06:39:10.732Z,100275.39
2017-11-19T06:41:38.350Z,100283.38
2017-11-19T06:44:05.986Z,100267.66
2017-11-19T06:46:33.664Z,100258.17
2017-11-19T06:49:01.323Z,100267.68
2017-11-19T06:51:29.039Z,100276.06
2017-11-19T06:53:56.686Z,100279.23
2017-11-19T06:56:24.385Z,100277.05
2017-11-19T06:58:52.062Z,100278.43
2017-11-19T07:01:19.776Z,100282.52
2017-11-19T07:03:47.415Z,100284.55
2017-11-19T07:06:15.158Z,100284.63
2017-11-19T07:08:42.757Z,100266.84
2017-11-19T07:11:10.411Z,100271.67
2017-11-19T07:13:38.116Z,100283.25
2017-11-19T07:16:05.765Z,100274.52
2017-11-19T07:18:33.454Z,100261.98
2017-11-19T07:21:01.116Z,100256.71
2017-11-19T07:23:28.813Z,100263.88
2017-11-19T07:25:56.409Z,100261.63
2017-11-19T07:28:24.121Z,100260.77
2017-11-19T07:30:51.800Z,100251.38
2017-11-19T07:33:19.566Z,100260.25
2017-11-19T07:35:47.223Z,100242.45
2017-11-19T07:38:14.945Z,100254.66
2017-11-19T07:40:42.628Z,100251.60
2017-11-19T07:43:10.336Z,100250.72
2017-11-19T07:45:37.989Z,100253.11
2017-11-19T07:48:05.690Z,100250.71
2017-11-19T07:50:33.403Z,100251.23
2017-11-19T07:53:01.087Z,100249.38
2017-11-19T07:55:28.742Z,100239.97
2017-11-19T07:57:56.380Z,100249.59
2017-11-19T08:00:24.031Z,100259.97
2017-11-19T08:02:51.718Z,100242.59
2017-11-19T08:05:19.363Z,100239.89
2017-11-19T08:07:47.017Z,100240.64
2017-11-19T08:10:14.705Z,100254.16
2017-11-19T08:12:42.341Z,100278.33
2017-11-19T08:15:10.037Z,100273.33
2017-11-19T08:17:37.707Z,100280.51
2017-11-19T08:20:05.412Z,100273.23
2017-11-19T08:22:33.066Z,100281.77
2017-11-19T08:25:00.739Z,100277.39
2017-11-19T08:27:28.387Z,100276.95
2017-11-19T08:29:56.110Z,100271.27
2017-11-19T08:32:23.755Z,100255.89
2017-11-19T08:34:51.442Z,100265.27
2017-11-19T08:37:19.101Z,100273.11
2017-11-19T08:39:46.776Z,100257.10
2017-11-19T08:42:14.449Z,100251.64
2017-11-19T08:44:42.136Z,100255.02
2017-11-19T08:47:09.806Z,100258.63
2017-11-19T08:49:37.496Z,100249.72
2017-11-19T08:52:05.305Z,100252.73
2017-11-19T08:54:32.993Z,100252.31
2017-11-19T08:57:00.651Z,100254.84
2017-11-19T08:59:28.356Z,100253.88
2017-11-19T09:01:56.026Z,100251.48
2017-11-19T09:04:23.703Z,100262.15
2017-11-19T09:06:51.394Z,100261.75
2017-11-19T09:09:19.920Z,100264.55
2017-11-19T09:11:47.605Z,100269.35
2017-11-19T09:14:15.256Z,100263.05
2017-11-19T09:16:42.956Z,100257.05
2017-11-19T09:19:10.601Z,100263.46
2017-11-19T09:21:38.296Z,100252.25
2017-11-19T09:24:05.954Z,100251.16
2017-11-19T09:26:33.699Z,100244.75
2017-11-19T09:29:01.352Z,100242.21
2017-11-19T09:31:29.051Z,100242.21
2017-11-19T09:33:56.707Z,100237.94
2017-11-19T09:36:24.409Z,100233.94
2017-11-19T09:38:52.051Z,100228.47
2017-11-19T09:41:19.756Z,100239.72
2017-11-19T09:43:47.397Z,100248.98
2017-11-19T09:46:15.072Z,100247.14
2017-11-19T09:48:42.727Z,100249.22
2017-11-19T09:51:10.440Z,100237.66
2017-11-19T09:53:38.084Z,100237.47
2017-11-19T09:56:05.782Z,100242.67
2017-11-19T09:58:33.467Z,100242.56
2017-11-19T10:01:01.116Z,100250.00
2017-11-19T10:03:28.801Z,100253.42
2017-11-19T10:05:56.469Z,100250.29
2017-11-19T10:08:24.178Z,100251.77
2017-11-19T10:10:51.853Z,100250.94
2017-11-19T10:13:19.543Z,100247.30
2017-11-19T10:15:47.186Z,100247.25
2017-11-19T10:18:14.877Z,100265.75
2017-11-19T10:20:42.528Z,100267.31
2017-11-19T10:23:10.217Z,100268.27
2017-11-19T10:25:37.864Z,100274.40
2017-11-19T10:28:05.579Z,100278.98
2017-11-19T10:30:33.246Z,100285.56
2017-11-19T10:33:00.929Z,100275.98
2017-11-19T10:35:28.599Z,100264.54
2017-11-19T10:37:56.281Z,100263.47
2017-11-19T10:40:23.925Z,100278.34
2017-11-19T10:42:51.608Z,100272.23
2017-11-19T10:45:19.281Z,100285.31
2017-11-19T10:47:46.968Z,100277.42
2017-11-19T10:50:14.646Z,100288.19
2017-11-19T10:52:42.379Z,100285.61
2017-11-19T10:55:10.021Z,100296.41
2017-11-19T10:57:37.729Z,100281.52
2017-11-19T11:00:05.391Z,100275.15
2017-11-19T11:02:33.039Z,100275.41
2017-11-19T11:05:00.728Z,100274.70
2017-11-19T11:07:28.393Z,100292.02
2017-11-19T11:09:56.802Z,100292.44
2017-11-19T11:12:24.446Z,100290.11
2017-11-19T11:14:52.125Z,100287.78
2017-11-19T11:17:19.756Z,100300.44
2017-11-19T11:19:47.456Z,100309.55
2017-11-19T11:22:15.121Z,100300.63
2017-11-19T11:24:42.823Z,100320.14
2017-11-19T11:27:10.467Z,100288.03
2017-11-19T11:29:38.201Z,100310.90
2017-11-19T11:32:05.847Z,100298.20
2017-11-19T11:34:33.540Z,100310.58
2017-11-19T11:37:01.191Z,100313.52
2017-11-19T11:39:28.885Z,100307.75
2017-11-19T11:41:56.526Z,100310.78
2017-11-19T11:44:24.218Z,100301.55
2017-11-19T11:46:51.871Z,100308.52
2017-11-19T11:49:19.563Z,100311.95
2017-11-19T11:51:47.357Z,100320.20
2017-11-19T11:54:15.021Z,100326.02
2017-11-19T11:56:42.700Z,100327.01
2017-11-19T11:59:10.381Z,100327.27
2017-11-19T12:01:38.076Z,100324.35
2017-11-19T12:04:05.767Z,100318.86
2017-11-19T12:06:33.420Z,100320.25
2017-11-19T12:09:01.070Z,100320.57
2017-11-19T12:11:28.780Z,100314.84
2017-11-19T12:13:56.435Z,100326.48
2017-11-19T12:16:24.126Z,100318.47
2017-11-19T12:18:51.791Z,100322.64
2017-11-19T12:21:19.488Z,100329.63
2017-11-19T12:23:47.155Z,100322.67
2017-11-19T12:26:14.848Z,100335.50
2017-11-19T12:28:42.488Z,100340.82
2017-11-19T12:31:10.197Z,100346.91
2017-11-19T12:33:37.848Z,100346.77
2017-11-19T12:36:05.533Z,100341.13
2017-11-19T12:38:33.181Z,100358.45
2017-11-19T12:41:00.884Z,100363.75
2017-11-19T12:43:28.532Z,100366.81
2017-11-19T12:45:56.236Z,100343.83
2017-11-19T12:48:23.822Z,100360.87
2017-11-19T12:50:51.549Z,100350.96
2017-11-19T12:53:19.141Z,100350.52
2017-11-19T12:55:46.805Z,100356.93
2017-11-19T12:58:14.498Z,100363.77
2017-11-19T13:00:42.190Z,100360.70
2017-11-19T13:03:09.881Z,100370.81
2017-11-19T13:05:37.528Z,100382.63
2017-11-19T13:08:05.216Z,100382.09
2017-11-19T13:10:33.977Z,100373.37
2017-11-19T13:13:01.691Z,100368.55
2017-11-19T13:15:29.354Z,100369.30
2017-11-19T13:18:00.333Z,100368.84
2017-11-19T13:20:28.024Z,100383.89
2017-11-19T13:22:55.703Z,100385.73
2017-11-19T13:25:23.361Z,100382.45
2017-11-19T13:27:51.059Z,100396.32
2017-11-19T13:30:18.726Z,100373.11
2017-11-19T13:32:46.432Z,100387.92
2017-11-19T13:35:14.086Z,100390.23
2017-11-19T13:37:41.773Z,100387.93
2017-11-19T13:40:09.440Z,100397.62
2017-11-19T13:42:37.143Z,100411.09
2017-11-19T13:45:04.810Z,100405.03
2017-11-19T13:47:32.488Z,100410.72
2017-11-19T13:50:00.146Z,100410.02
2017-11-19T13:52:27.878Z,100413.31
2017-11-19T13:54:55.521Z,100405.39
2017-11-19T13:57:23.224Z,100403.05
2017-11-19T13:59:50.887Z,100412.08
2017-11-19T14:02:18.537Z,100408.95
2017-11-19T14:04:46.212Z,100419.84
2017-11-19T14:07:13.859Z,100408.48
2017-11-19T14:09:41.568Z,100417.11
2017-11-19T14:12:09.224Z,100423.08
2017-11-19T14:14:36.917Z,100419.80
2017-11-19T14:17:04.564Z,100419.56
2017-11-19T14:19:32.246Z,100420.63
2017-11-19T14:21:59.919Z,100424.73
2017-11-19T14:24:27.614Z,100427.05
2017-11-19T14:26:55.265Z,100428.80
2017-11-19T14:29:22.955Z,100430.59
2017-11-19T14:31:50.689Z,100426.39
2017-11-19T14:34:18.399Z,100428.16
2017-11-19T14:36:46.059Z,100423.81
2017-11-19T14:39:13.751Z,100425.53
2017-11-19T14:41:41.409Z,100430.66
2017-11-19T14:44:09.105Z,100430.92
2017-11-19T14:46:36.771Z,100429.03
2017-11-19T14:49:04.483Z,100441.22
2017-11-19T14:51:32.175Z,100440.43
2017-11-19T14:53:59.867Z,100444.22
2017-11-19T14:56:27.535Z,100448.33
2017-11-19T14:58:55.206Z,100458.20
2017-11-19T15:01:22.914Z,100454.94
2017-11-19T15:03:50.573Z,100452.62
2017-11-19T15:06:18.269Z,100468.41
2017-11-19T15:08:45.849Z,100469.44
2017-11-19T15:11:13.551Z,100462.19
2017-11-19T15:13:41.219Z,100474.00
2017-11-19T15:16:08.910Z,100462.17
2017-11-19T15:18:36.564Z,100470.54
2017-11-19T15:21:04.243Z,100465.31
2017-11-19T15:23:31.886Z,100474.87
2017-11-19T15:25:59.580Z,100479.12
2017-11-19T15:28:27.229Z,100473.53
2017-11-19T15:30:54.912Z,100496.41
2017-11-19T15:33:22.563Z,100490.67
2017-11-19T15:35:50.269Z,100491.77
2017-11-19T15:38:17.914Z,100490.23
2017-11-19T15:40:45.620Z,100492.41
2017-11-19T15:43:13.299Z,100513.89
2017-11-19T15:45:41.002Z,100502.02
2017-11-19T15:48:08.648Z,100504.93
2017-11-19T15:50:36.335Z,100509.64
2017-11-19T15:53:04.026Z,100520.16
2017-11-19T15:55:31.692Z,100520.91
2017-11-19T15:58:00.276Z,100532.64
2017-11-19T16:00:27.922Z,100523.55
2017-11-19T16:02:55.600Z,100529.50
2017-11-19T16:05:23.272Z,100531.67
2017-11-19T16:07:50.965Z,100529.95
2017-11-19T16:10:18.602Z,100537.21
2017-11-19T16:12:46.286Z,100550.97
2017-11-19T16:15:13.935Z,100541.25
2017-11-19T16:17:41.612Z,100546.74
2017-11-19T16:20:09.281Z,100552.41
2017-11-19T16:22:36.977Z,100550.98
2017-11-19T16:25:04.621Z,100555.16
2017-11-19T16:27:32.314Z,100565.31
2017-11-19T16:29:59.977Z,100569.82
2017-11-19T16:32:27.725Z,100570.43
2017-11-19T16:34:55.470Z,100569.94
2017-11-19T16:37:23.179Z,100574.33
2017-11-19T16:39:50.867Z,100573.97
2017-11-19T16:42:18.538Z,100582.15
2017-11-19T16:44:46.212Z,100578.28
2017-11-19T16:47:13.955Z,100589.75
2017-11-19T16:49:41.625Z,100591.12
2017-11-19T16:52:09.340Z,100605.00
2017-11-19T16:54:37.035Z,100591.55
2017-11-19T16:57:04.714Z,100602.48
2017-11-19T16:59:32.397Z,100602.39
2017-11-19T17:02:00.091Z,100606.43
2017-11-19T17:04:27.770Z,100609.98
2017-11-19T17:06:55.426Z,100626.19
2017-11-19T17:09:23.119Z,100620.55
2017-11-19T17:11:51.452Z,100628.14
2017-11-19T17:14:19.156Z,100630.13
2017-11-19T17:16:46.824Z,100633.92
2017-11-19T17:19:14.540Z,100647.58
2017-11-19T17:21:42.206Z,100649.26
2017-11-19T17:24:09.891Z,100649.26
2017-11-19T17:26:37.541Z,100651.61
2017-11-19T17:29:05.253Z,100658.69
2017-11-19T17:31:32.925Z,100656.23
2017-11-19T17:34:00.643Z,100660.95
2017-11-19T17:36:34.320Z,100662.70
2017-11-19T17:39:02.009Z,100662.28
2017-11-19T17:41:29.657Z,100669.75
2017-11-19T17:43:57.356Z,100679.82
2017-11-19T17:46:25.092Z,100675.60
2017-11-19T17:48:52.795Z,100675.67
2017-11-19T17:51:20.492Z,100684.51
2017-11-19T17:53:48.214Z,100697.91
2017-11-19T17:56:15.859Z,100701.52
2017-11-19T17:58:43.547Z,100702.52
2017-11-19T18:01:11.206Z,100706.71
2017-11-19T18:03:38.872Z,100700.36
2017-11-19T18:06:06.596Z,100712.05
2017-11-19T18:08:34.265Z,100720.44
2017-11-19T18:11:02.175Z,100724.05
2017-11-19T18:13:29.846Z,100722.53
2017-11-19T18:15:57.524Z,100730.28
2017-11-19T18:18:25.177Z,100731.12
2017-11-19T18:20:52.864Z,100734.02
2017-11-19T18:23:20.513Z,100735.81
2017-11-19T18:25:48.229Z,100735.84
2017-11-19T18:28:15.924Z,100745.84
2017-11-19T18:30:43.630Z,100736.62
2017-11-19T18:33:11.286Z,100746.86
2017-11-19T18:35:38.977Z,100750.13
2017-11-19T18:38:06.647Z,100755.36
2017-11-19T18:40:34.330Z,100765.98
2017-11-19T18:43:01.979Z,100768.38
2017-11-19T18:45:29.669Z,100773.63
2017-11-19T18:47:57.530Z,100782.34
2017-11-19T18:50:25.200Z,100783.02
2017-11-19T18:52:52.922Z,100776.39
2017-11-19T18:55:21.491Z,100790.75
2017-11-19T18:57:49.162Z,100790.73
2017-11-19T19:00:16.794Z,100798.19
2017-11-19T19:02:44.480Z,100803.28
2017-11-19T19:05:12.119Z,100808.27
2017-11-19T19:07:39.826Z,100815.16
2017-11-19T19:10:07.489Z,100818.88
2017-11-19T19:12:35.183Z,100818.89
2017-11-19T19:15:03.013Z,100825.81
2017-11-19T19:17:30.692Z,100829.84
2017-11-19T19:19:58.345Z,100845.55
2017-11-19T19:22:26.034Z,100852.09
2017-11-19T19:24:53.686Z,100865.31
2017-11-19T19:27:21.383Z,100875.25
2017-11-19T19:29:49.040Z,100866.67
2017-11-19T19:32:16.743Z,100873.56
2017-11-19T19:34:44.417Z,100875.38
2017-11-19T19:37:12.087Z,100886.00
2017-11-19T19:39:39.737Z,100890.44
2017-11-19T19:42:07.391Z,100896.38
2017-11-19T19:44:35.083Z,100918.31
2017-11-19T19:47:02.759Z,100912.63
2017-11-19T19:49:30.454Z,100927.81
2017-11-19T19:51:58.131Z,100926.72
2017-11-19T19:54:25.814Z,100931.41
2017-11-19T19:56:53.464Z,100933.48
2017-11-19T19:59:21.157Z,100956.80
2017-11-19T20:01:48.825Z,100951.13
2017-11-19T20:04:16.519Z,100948.10
2017-11-19T20:06:44.170Z,100958.01
2017-11-19T20:09:11.855Z,100965.89
2017-11-19T20:11:39.532Z,100964.09
2017-11-19T20:14:07.215Z,100973.18
2017-11-19T20:16:34.868Z,100981.84
2017-11-19T20:19:02.554Z,100978.27
2017-11-19T20:21:30.213Z,100978.13
2017-11-19T20:23:57.877Z,100984.45
2017-11-19T20:26:25.521Z,100991.90
2017-11-19T20:28:53.199Z,100995.77
2017-11-19T20:31:20.844Z,101006.06
2017-11-19T20:33:48.519Z,100999.81
2017-11-19T20:36:16.192Z,101016.63
2017-11-19T20:38:43.877Z,101020.58
2017-11-19T20:41:11.489Z,101029.63
2017-11-19T20:43:39.133Z,101031.09
2017-11-19T20:46:06.762Z,101039.97
2017-11-19T20:48:34.432Z,101040.98
2017-11-19T20:51:02.164Z,101043.23
2017-11-19T20:53:29.815Z,101046.34
2017-11-19T20:55:57.512Z,101048.08
2017-11-19T20:58:25.181Z,101050.70
2017-11-19T21:00:52.860Z,101055.77
2017-11-19T21:03:20.517Z,101061.41
2017-11-19T21:05:48.226Z,101073.38
2017-11-19T21:08:15.894Z,101069.51
2017-11-19T21:10:43.591Z,101068.83
2017-11-19T21:13:11.243Z,101072.91
2017-11-19T21:15:38.861Z,101075.20
2017-11-19T21:18:06.512Z,101068.27
2017-11-19T21:20:34.173Z,101080.09
2017-11-19T21:23:01.857Z,101073.75
2017-11-19T21:25:29.500Z,101071.25
2017-11-19T21:27:57.204Z,101079.16
2017-11-19T21:30:24.857Z,101078.17
2017-11-19T21:32:52.527Z,101082.25
2017-11-19T21:35:20.107Z,101078.52
2017-11-19T21:37:47.792Z,101082.19
2017-11-19T21:40:15.438Z,101081.57
2017-11-19T21:42:43.121Z,101083.19
2017-11-19T21:45:10.778Z,101085.47
2017-11-19T21:47:38.401Z,101084.16
2017-11-19T21:50:06.054Z,101087.27
2017-11-19T21:52:33.677Z,101089.56
2017-11-19T21:55:01.352Z,101086.78
2017-11-19T21:57:29.060Z,101087.05
2017-11-19T21:59:56.724Z,101081.11
2017-11-19T22:02:24.384Z,101093.69
2017-11-19T22:04:52.066Z,101090.16
2017-11-19T22:07:19.734Z,101091.31
2017-11-19T22:09:47.438Z,101098.41
2017-11-19T22:12:15.079Z,101097.16
2017-11-19T22:14:42.763Z,101103.04
2017-11-19T22:17:10.431Z,101107.55
2017-11-19T22:19:38.118Z,101102.17
2017-11-19T22:22:05.762Z,101110.38
2017-11-19T22:24:33.448Z,101108.61
2017-11-19T22:27:01.096Z,101105.69
2017-11-19T22:29:28.799Z,101113.23
2017-11-19T22:31:56.443Z,101124.49
2017-11-19T22:34:24.122Z,101120.48
2017-11-19T22:36:51.755Z,101125.30
2017-11-19T22:39:19.847Z,101121.98
2017-11-19T22:41:47.495Z,101123.85
2017-11-19T22:44:15.180Z,101124.00
2017-11-19T22:46:42.838Z,101122.20
2017-11-19T22:49:10.521Z,101122.98
2017-11-19T22:51:38.216Z,101125.88
2017-11-19T22:54:05.856Z,101123.28
2017-11-19T22:56:33.539Z,101125.76
2017-11-19T22:59:01.252Z,101135.17
2017-11-19T23:01:28.936Z,101130.06
2017-11-19T23:03:56.580Z,101134.69
2017-11-19T23:06:24.264Z,101138.92
2017-11-19T23:08:51.894Z,101137.66
2017-11-19T23:11:19.566Z,101141.97
2017-11-19T23:13:47.222Z,101145.06
2017-11-19T23:16:14.909Z,101138.84
2017-11-19T23:18:42.563Z,101134.76
2017-11-19T23:21:10.238Z,101138.00
2017-11-19T23:23:37.902Z,101137.16
2017-11-19T23:26:05.585Z,101131.41
2017-11-19T23:28:33.240Z,101135.10
2017-11-19T23:31:00.911Z,101133.61
2017-11-19T23:33:28.551Z,101131.98
2017-11-19T23:35:56.229Z,101131.48
2017-11-19T23:38:23.889Z,101134.11
2017-11-19T23:40:51.568Z,101131.36
2017-11-19T23:43:19.156Z,101134.87
2017-11-19T23:45:46.853Z,101130.45
2017-11-19T23:48:14.549Z,101129.57
2017-11-19T23:50:42.201Z,101129.84
2017-11-19T23:53:09.911Z,101124.23
2017-11-19T23:55:37.557Z,101129.80
2017-11-19T23:58:05.246Z,101135.95
